Warning: Javascript must be enabled to use all the features on this page!


Page Loading - Please Wait...

Click to hideNews Bulletins
Click to hide state-specific text

Welcome to the NWIS-Web for the Arizona Water Science Center


The majority of USGS Gaging Stations are funded though a cooperative program between the USGS other interested agencies.
Follow this link for information on the Cooperative Water Program with the USGS.

Arizona Water Science Center Home Page
Colorado Basin River Forecast Center (CBRFC) - provided by the National Weather Service, AHPS. CBRFC on a esri powered interactive map.
Threatened and Endangered USGS Gaging Stations in Arizona

USGS 09471000 SAN PEDRO RIVER AT CHARLESTON, AZ.

PROVISIONAL DATA SUBJECT TO REVISION

Click to hidestation-specific text
Station operated in cooperation with Cochise County, the Bureau of Land Management, and the Arizona Department of Water Resources.

HIGH DATA RATE (Site data are transmitted & updated hourly)
rainfall Arrow
This station managed by the Tucson Field Office; USGS, AZ-WSC.

Available Parameters Available Period
All 4 Available Parameters for this site
  
00010 Temperature, water 2013-07-27  2016-07-26
00065 Gage height [Radar Stage Sensor] 2016-03-28  2016-07-26
00060 Discharge 2007-10-01  2016-07-26
00045 Precipitation 2016-03-28  2016-07-26

Graph
Graph w/ stats
Graph w/o stats
Graph w/ (up to 3) parms
Table
Tab-separated
Days  (7)
 

  -- or --
Begin date
 

End date
 

Summary of all available data for this site
Instantaneous-data availability statement






Date / Time



Temper-
ature,
water,
deg C,




Gage
height,
feet,
[Radar
Stage
Sensor]




Dis-
charge,
ft3/s,



Precip-
itation
total,
inches,
07/19/2016 00:00 MST23.7P  1.90P  3.73P  0.00P  
07/19/2016 00:15 MST23.6P  1.90P  3.73P  0.00P  
07/19/2016 00:30 MST23.6P  1.90P  3.73P  0.00P  
07/19/2016 00:45 MST23.5P  1.90P  3.73P  0.00P  
07/19/2016 01:00 MST23.5P  1.90P  3.73P  0.00P  
07/19/2016 01:15 MST23.4P  1.90P  3.73P  0.00P  
07/19/2016 01:30 MST23.4P  1.90P  3.73P  0.00P  
07/19/2016 01:45 MST23.4P  1.90P  3.73P  0.00P  
07/19/2016 02:00 MST23.3P  1.90P  3.73P  0.00P  
07/19/2016 02:15 MST23.3P  1.90P  3.73P  0.00P  
07/19/2016 02:30 MST23.2P  1.90P  3.73P  0.00P  
07/19/2016 02:45 MST23.2P  1.90P  3.73P  0.00P  
07/19/2016 03:00 MST23.2P  1.90P  3.73P  0.00P  
07/19/2016 03:15 MST23.1P  1.89P  3.52P  0.00P  
07/19/2016 03:30 MST23.0P  1.89P  3.52P  0.00P  
07/19/2016 03:45 MST23.0P  1.89P  3.52P  0.00P  
07/19/2016 04:00 MST22.9P  1.89P  3.52P  0.00P  
07/19/2016 04:15 MST22.9P  1.89P  3.52P  0.00P  
07/19/2016 04:30 MST22.8P  1.89P  3.52P  0.00P  
07/19/2016 04:45 MST22.8P  1.89P  3.52P  0.00P  
07/19/2016 05:00 MST22.8P  1.89P  3.52P  0.00P  
07/19/2016 05:15 MST22.7P  1.89P  3.52P  0.00P  
07/19/2016 05:30 MST22.7P  1.89P  3.52P  0.00P  
07/19/2016 05:45 MST22.6P  1.89P  3.52P  0.00P  
07/19/2016 06:00 MST22.5P  1.89P  3.52P  0.00P  
07/19/2016 06:15 MST22.4P  1.89P  3.52P  0.00P  
07/19/2016 06:30 MST22.4P  1.89P  3.52P  0.00P  
07/19/2016 06:45 MST22.4P  1.89P  3.52P  0.00P  
07/19/2016 07:00 MST22.4P  1.89P  3.52P  0.00P  
07/19/2016 07:15 MST22.4P  1.89P  3.52P  0.00P  
07/19/2016 07:30 MST22.4P  1.89P  3.52P  0.00P  
07/19/2016 07:45 MST22.4P  1.89P  3.52P  0.00P  
07/19/2016 08:00 MST22.5P  1.89P  3.52P  0.00P  
07/19/2016 08:15 MST22.6P  1.89P  3.52P  0.00P  
07/19/2016 08:30 MST22.7P  1.89P  3.52P  0.00P  
07/19/2016 08:45 MST22.8P  1.88P  3.31P  0.00P  
07/19/2016 09:00 MST22.9P  1.88P  3.31P  0.00P  
07/19/2016 09:15 MST23.2P  1.88P  3.31P  0.00P  
07/19/2016 09:30 MST23.4P  1.88P  3.31P  0.00P  
07/19/2016 09:45 MST23.7P  1.88P  3.31P  0.00P  
07/19/2016 10:00 MST24.1P  1.88P  3.31P  0.00P  
07/19/2016 10:15 MST24.5P  1.88P  3.31P  0.00P  
07/19/2016 10:30 MST24.8P  1.87P  3.12P  0.00P  
07/19/2016 10:45 MST25.1P  1.88P  3.31P  0.00P  
07/19/2016 11:00 MST25.5P  1.87P  3.12P  0.00P  
07/19/2016 11:15 MST25.8P  1.87P  3.12P  0.00P  
07/19/2016 11:30 MST26.2P  1.87P  3.12P  0.00P  
07/19/2016 11:45 MST26.5P  1.87P  3.12P  0.00P  
07/19/2016 12:00 MST26.9P  1.87P  3.12P  0.00P  
07/19/2016 12:15 MST27.3P  1.87P  3.12P  0.00P  
07/19/2016 12:30 MST27.7P  1.86P  2.93P  0.00P  
07/19/2016 12:45 MST28.2P  1.86P  2.93P  0.00P  
07/19/2016 13:00 MST28.5P  1.86P  2.93P  0.00P  
07/19/2016 13:15 MST28.8P  1.86P  2.93P  0.00P  
07/19/2016 13:30 MST29.2P  1.86P  2.93P  0.00P  
07/19/2016 13:45 MST29.5P  1.86P  2.93P  0.00P  
07/19/2016 14:00 MST29.7P  1.85P  2.75P  0.00P  
07/19/2016 14:15 MST29.9P  1.85P  2.75P  0.00P  
07/19/2016 14:30 MST30.4P  1.85P  2.75P  0.00P  
07/19/2016 14:45 MST30.4P  1.85P  2.75P  0.00P  
07/19/2016 15:00 MST30.8P  1.85P  2.75P  0.00P  
07/19/2016 15:15 MST30.9P  1.85P  2.75P  0.00P  
07/19/2016 15:30 MST31.3P  1.84P  2.58P  0.00P  
07/19/2016 15:45 MST30.8P  1.84P  2.58P  0.00P  
07/19/2016 16:00 MST30.5P  1.84P  2.58P  0.00P  
07/19/2016 16:15 MST30.3P  1.84P  2.58P  0.00P  
07/19/2016 16:30 MST30.2P  1.84P  2.58P  0.00P  
07/19/2016 16:45 MST30.0P  1.83P  2.42P  0.00P  
07/19/2016 17:00 MST29.6P  1.84P  2.58P  0.00P  
07/19/2016 17:15 MST29.3P  1.84P  2.58P  0.00P  
07/19/2016 17:30 MST29.1P  1.84P  2.58P  0.00P  
07/19/2016 17:45 MST28.7P        0.01P  
07/19/2016 18:00 MST28.2P  1.85P  2.75P  0.11P  
07/19/2016 18:15 MST27.8P  1.86P  2.93P  0.18P  
07/19/2016 18:30 MST27.5P  1.89P  3.52P  0.02P  
07/19/2016 18:45 MST27.2P  1.89P  3.52P  0.00P  
07/19/2016 19:00 MST26.9P  1.89P  3.52P  0.00P  
07/19/2016 19:15 MST26.6P  1.89P  3.52P  0.00P  
07/19/2016 19:30 MST26.5P  1.91P  3.95P  0.00P  
07/19/2016 19:45 MST26.3P  2.01P  6.71P  0.00P  
07/19/2016 19:59 MST   2.26P  19.2P     
07/19/2016 20:00 MST26.2P  2.26P  19.2P  0.00P  
07/19/2016 20:14 MST   4.56P  641P     
07/19/2016 20:15 MST   4.56P  641P  0.00P  
07/19/2016 20:29 MST   4.76P  756P     
07/19/2016 20:30 MST   4.76P  756P  0.00P  
07/19/2016 20:44 MST   4.57P  647P     
07/19/2016 20:45 MST   4.57P  647P  0.00P  
07/19/2016 20:59 MST   4.40P  558P     
07/19/2016 21:00 MST22.3P  4.40P  558P  0.00P  
07/19/2016 21:14 MST   4.21P  468P     
07/19/2016 21:15 MST   4.21P  468P  0.00P  
07/19/2016 21:29 MST   3.97P  369P     
07/19/2016 21:30 MST   3.97P  369P  0.00P  
07/19/2016 21:45 MST22.8P  3.80P  307P  0.00P  
07/19/2016 22:00 MST22.9P  3.60P  244P  0.00P  
07/19/2016 22:15 MST22.9P  3.44P  200P  0.00P  
07/19/2016 22:30 MST22.9P  3.29P  161P  0.00P  
07/19/2016 22:45 MST23.0P  3.16P  134P  0.00P  
07/19/2016 23:00 MST22.9P  3.05P  113P  0.00P  
07/19/2016 23:15 MST22.9P  2.95P  95.6P  0.00P  
07/19/2016 23:30 MST22.9P  2.87P  83.2P  0.00P  
07/19/2016 23:45 MST22.9P  2.80P  73.3P  0.00P  
07/20/2016 00:00 MST22.8P  2.73P  64.2P  0.00P  
07/20/2016 00:15 MST22.8P  2.67P  56.9P  0.00P  
07/20/2016 00:30 MST22.8P  2.62P  51.3P  0.00P  
07/20/2016 00:45 MST22.8P  2.57P  46.1P  0.00P  
07/20/2016 01:00 MST22.7P  2.52P  41.2P  0.00P  
07/20/2016 01:15 MST22.7P  2.48P  37.4P  0.00P  
07/20/2016 01:30 MST22.7P  2.44P  33.9P  0.00P  
07/20/2016 01:45 MST22.7P  2.41P  31.4P  0.00P  
07/20/2016 02:00 MST22.6P  2.38P  28.8P  0.00P  
07/20/2016 02:15 MST22.6P  2.35P  26.3P  0.00P  
07/20/2016 02:30 MST22.6P  2.32P  23.8P  0.00P  
07/20/2016 02:45 MST22.6P  2.30P  22.2P  0.00P  
07/20/2016 03:00 MST22.6P  2.28P  20.7P  0.00P  
07/20/2016 03:15 MST22.6P  2.26P  19.2P  0.00P  
07/20/2016 03:30 MST22.5P  2.25P  18.5P  0.00P  
07/20/2016 03:45 MST22.5P  2.23P  17.2P  0.00P  
07/20/2016 04:00 MST22.5P  2.22P  16.6P  0.00P  
07/20/2016 04:15 MST22.4P  2.20P  15.4P  0.00P  
07/20/2016 04:30 MST22.4P  2.19P  14.8P  0.00P  
07/20/2016 04:45 MST22.4P  2.18P  14.2P  0.00P  
07/20/2016 05:00 MST22.4P  2.17P  13.6P  0.00P  
07/20/2016 05:15 MST22.3P  2.16P  13.1P  0.00P  
07/20/2016 05:30 MST22.3P  2.15P  12.6P  0.00P  
07/20/2016 05:45 MST22.3P  2.14P  12.1P  0.00P  
07/20/2016 06:00 MST22.2P  2.14P  12.1P  0.00P  
07/20/2016 06:15 MST22.2P  2.13P  11.6P  0.00P  
07/20/2016 06:30 MST22.2P  2.12P  11.1P  0.00P  
07/20/2016 06:45 MST22.2P  2.11P  10.6P  0.00P  
07/20/2016 07:00 MST22.1P  2.11P  10.6P  0.00P  
07/20/2016 07:15 MST22.1P  2.10P  10.2P  0.00P  
07/20/2016 07:30 MST22.1P  2.09P  9.74P  0.00P  
07/20/2016 07:45 MST22.1P  2.09P  9.74P  0.00P  
07/20/2016 08:00 MST22.1P  2.08P  9.32P  0.00P  
07/20/2016 08:15 MST22.1P  2.08P  9.32P  0.00P  
07/20/2016 08:30 MST22.2P  2.07P  8.91P  0.00P  
07/20/2016 08:45 MST22.2P  2.07P  8.91P  0.00P  
07/20/2016 09:00 MST22.2P  2.07P  8.91P  0.00P  
07/20/2016 09:15 MST22.3P  2.06P  8.51P  0.00P  
07/20/2016 09:30 MST22.4P  2.05P  8.12P  0.00P  
07/20/2016 09:45 MST22.4P  2.05P  8.12P  0.00P  
07/20/2016 10:00 MST22.5P  2.04P  7.75P  0.00P  
07/20/2016 10:15 MST22.6P  2.04P  7.75P  0.00P  
07/20/2016 10:30 MST22.7P  2.03P  7.39P  0.00P  
07/20/2016 10:45 MST22.9P  2.03P  7.39P  0.00P  
07/20/2016 11:00 MST23.1P  2.03P  7.39P  0.00P  
07/20/2016 11:15 MST23.2P  2.02P  7.04P  0.00P  
07/20/2016 11:30 MST23.4P  2.02P  7.04P  0.00P  
07/20/2016 11:45 MST23.6P  2.02P  7.04P  0.00P  
07/20/2016 12:00 MST23.8P  2.01P  6.71P  0.00P  
07/20/2016 12:15 MST24.0P  2.01P  6.71P  0.00P  
07/20/2016 12:30 MST24.3P  2.00P  6.39P  0.00P  
07/20/2016 12:45 MST24.5P  2.00P  6.39P  0.00P  
07/20/2016 13:00 MST24.7P  2.00P  6.39P  0.00P  
07/20/2016 13:15 MST24.9P  1.99P  6.07P  0.00P  
07/20/2016 13:30 MST25.2P  1.99P  6.07P  0.00P  
07/20/2016 13:45 MST25.4P  1.99P  6.07P  0.00P  
07/20/2016 14:00 MST25.6P  1.98P  5.77P  0.00P  
07/20/2016 14:15 MST25.8P  1.98P  5.77P  0.00P  
07/20/2016 14:30 MST26.0P  1.97P  5.48P  0.00P  
07/20/2016 14:45 MST26.1P  1.97P  5.48P  0.00P  
07/20/2016 15:00 MST26.3P  1.97P  5.48P  0.00P  
07/20/2016 15:15 MST26.4P  1.97P  5.48P  0.00P  
07/20/2016 15:30 MST26.5P  1.96P  5.20P  0.00P  
07/20/2016 15:45 MST26.7P  1.96P  5.20P  0.00P  
07/20/2016 16:00 MST26.8P  1.96P  5.20P  0.00P  
07/20/2016 16:15 MST26.8P  1.95P  4.93P  0.00P  
07/20/2016 16:30 MST26.8P  1.95P  4.93P  0.00P  
07/20/2016 16:45 MST26.8P  1.95P  4.93P  0.00P  
07/20/2016 17:00 MST26.7P  1.95P  4.93P  0.01P  
07/20/2016 17:15 MST26.6P  1.95P  4.93P  0.00P  
07/20/2016 17:30 MST26.6P  1.94P  4.67P  0.00P  
07/20/2016 17:45 MST26.5P  1.95P  4.93P  0.00P  
07/20/2016 18:00 MST26.4P  1.95P  4.93P  0.00P  
07/20/2016 18:15 MST26.3P  1.94P  4.67P  0.00P  
07/20/2016 18:30 MST26.2P  1.94P  4.67P  0.00P  
07/20/2016 18:45 MST26.1P  1.94P  4.67P  0.00P  
07/20/2016 19:00 MST26.0P  1.94P  4.67P  0.00P  
07/20/2016 19:15 MST26.0P  1.94P  4.67P  0.00P  
07/20/2016 19:30 MST25.9P  1.94P  4.67P  0.00P  
07/20/2016 19:45 MST25.8P  1.93P  4.42P  0.00P  
07/20/2016 20:00 MST25.7P  1.93P  4.42P  0.00P  
07/20/2016 20:15 MST25.7P  1.93P  4.42P  0.00P  
07/20/2016 20:30 MST25.6P  1.93P  4.42P  0.00P  
07/20/2016 20:45 MST25.5P  1.93P  4.42P  0.00P  
07/20/2016 21:00 MST25.4P  1.93P  4.42P  0.00P  
07/20/2016 21:15 MST25.3P  1.93P  4.42P  0.00P  
07/20/2016 21:30 MST25.3P  1.92P  4.18P  0.00P  
07/20/2016 21:45 MST25.2P  1.93P  4.42P  0.00P  
07/20/2016 22:00 MST25.1P  1.93P  4.42P  0.00P  
07/20/2016 22:15 MST25.1P  1.92P  4.18P  0.00P  
07/20/2016 22:30 MST25.0P  1.92P  4.18P  0.00P  
07/20/2016 22:45 MST24.9P  1.92P  4.18P  0.00P  
07/20/2016 23:00 MST24.8P  1.92P  4.18P  0.00P  
07/20/2016 23:15 MST24.8P  1.92P  4.18P  0.00P  
07/20/2016 23:30 MST24.7P  1.92P  4.18P  0.00P  
07/20/2016 23:45 MST24.6P  1.92P  4.18P  0.00P  
07/21/2016 00:00 MST24.5P  1.92P  4.18P  0.00P  
07/21/2016 00:15 MST24.5P  1.92P  4.18P  0.00P  
07/21/2016 00:30 MST24.4P  1.92P  4.18P  0.00P  
07/21/2016 00:45 MST24.3P  1.92P  4.18P  0.00P  
07/21/2016 01:00 MST24.2P  1.92P  4.18P  0.00P  
07/21/2016 01:15 MST24.2P  1.92P  4.18P  0.00P  
07/21/2016 01:30 MST24.1P  1.92P  4.18P  0.00P  
07/21/2016 01:45 MST24.0P  1.92P  4.18P  0.00P  
07/21/2016 02:00 MST24.0P  1.92P  4.18P  0.00P  
07/21/2016 02:15 MST23.9P  1.92P  4.18P  0.00P  
07/21/2016 02:30 MST23.8P  1.92P  4.18P  0.00P  
07/21/2016 02:45 MST23.8P  1.92P  4.18P  0.00P  
07/21/2016 03:00 MST23.7P  1.92P  4.18P  0.00P  
07/21/2016 03:15 MST23.6P  1.92P  4.18P  0.00P  
07/21/2016 03:30 MST23.6P  1.92P  4.18P  0.00P  
07/21/2016 03:45 MST23.5P  1.92P  4.18P  0.00P  
07/21/2016 04:00 MST23.4P  1.92P  4.18P  0.00P  
07/21/2016 04:15 MST23.4P  1.92P  4.18P  0.00P  
07/21/2016 04:30 MST23.4P  1.92P  4.18P  0.00P  
07/21/2016 04:45 MST23.3P  1.92P  4.18P  0.00P  
07/21/2016 05:00 MST23.2P  1.92P  4.18P  0.00P  
07/21/2016 05:15 MST23.1P  1.91P  3.95P  0.00P  
07/21/2016 05:30 MST23.1P  1.91P  3.95P  0.00P  
07/21/2016 05:45 MST23.0P  1.91P  3.95P  0.00P  
07/21/2016 06:00 MST23.0P  1.91P  3.95P  0.00P  
07/21/2016 06:15 MST22.9P  1.91P  3.95P  0.00P  
07/21/2016 06:30 MST22.9P  1.91P  3.95P  0.01P  
07/21/2016 06:45 MST22.8P  1.91P  3.95P  0.00P  
07/21/2016 07:00 MST22.8P  1.91P  3.95P  0.00P  
07/21/2016 07:15 MST22.8P  1.91P  3.95P  0.00P  
07/21/2016 07:30 MST22.8P  1.92P  4.18P  0.00P  
07/21/2016 07:45 MST22.8P  1.91P  3.95P  0.00P  
07/21/2016 08:00 MST22.8P  1.91P  3.95P  0.00P  
07/21/2016 08:15 MST22.8P  1.91P  3.95P  0.00P  
07/21/2016 08:30 MST22.9P  1.91P  3.95P  0.00P  
07/21/2016 08:45 MST22.9P  1.91P  3.95P  0.00P  
07/21/2016 09:00 MST22.9P  1.91P  3.95P  0.00P  
07/21/2016 09:15 MST23.0P  1.91P  3.95P  0.00P  
07/21/2016 09:30 MST23.1P  1.91P  3.95P  0.00P  
07/21/2016 09:45 MST23.3P  1.91P  3.95P  0.00P  
07/21/2016 10:00 MST23.5P  1.90P  3.73P  0.00P  
07/21/2016 10:15 MST23.7P  1.90P  3.73P  0.00P  
07/21/2016 10:30 MST23.9P  1.90P  3.73P  0.00P  
07/21/2016 10:45 MST24.1P  1.90P  3.73P  0.00P  
07/21/2016 11:00 MST24.3P  1.90P  3.73P  0.00P  
07/21/2016 11:15 MST24.6P  1.90P  3.73P  0.00P  
07/21/2016 11:30 MST24.8P  1.90P  3.73P  0.00P  
07/21/2016 11:45 MST25.1P  1.89P  3.52P  0.00P  
07/21/2016 12:00 MST25.3P  1.89P  3.52P  0.00P  
07/21/2016 12:15 MST25.6P  1.89P  3.52P  0.00P  
07/21/2016 12:30 MST25.9P  1.89P  3.52P  0.00P  
07/21/2016 12:45 MST26.2P  1.89P  3.52P  0.00P  
07/21/2016 13:00 MST26.4P  1.89P  3.52P  0.00P  
07/21/2016 13:15 MST26.6P  1.88P  3.31P  0.00P  
07/21/2016 13:30 MST26.9P  1.88P  3.31P  0.00P  
07/21/2016 13:45 MST27.3P  1.88P  3.31P  0.00P  
07/21/2016 14:00 MST27.6P  1.87P  3.12P  0.00P  
07/21/2016 14:15 MST27.9P  1.88P  3.31P  0.00P  
07/21/2016 14:30 MST28.2P  1.87P  3.12P  0.00P  
07/21/2016 14:45 MST28.5P  1.87P  3.12P  0.00P  
07/21/2016 15:00 MST28.5P  1.87P  3.12P  0.00P  
07/21/2016 15:15 MST28.4P  1.84P  2.58P  0.00P  
07/21/2016 15:30 MST28.3P  1.86P  2.93P  0.00P  
07/21/2016 15:45 MST28.1P  1.84P  2.58P  0.00P  
07/21/2016 16:00 MST28.1P  1.85P  2.75P  0.00P  
07/21/2016 16:15 MST28.0P  1.87P  3.12P  0.00P  
07/21/2016 16:30 MST28.1P  1.87P  3.12P  0.00P  
07/21/2016 16:45 MST28.0P  1.87P  3.12P  0.00P  
07/21/2016 17:00 MST28.0P  1.87P  3.12P  0.00P  
07/21/2016 17:15 MST28.0P  1.87P  3.12P  0.00P  
07/21/2016 17:30 MST28.0P  1.86P  2.93P  0.00P  
07/21/2016 17:45 MST27.9P  1.86P  2.93P  0.00P  
07/21/2016 18:00 MST27.9P  1.86P  2.93P  0.00P  
07/21/2016 18:15 MST27.9P  1.86P  2.93P  0.00P  
07/21/2016 18:30 MST27.8P  1.86P  2.93P  0.00P  
07/21/2016 18:45 MST27.7P  1.86P  2.93P  0.00P  
07/21/2016 19:00 MST27.6P  1.86P  2.93P  0.00P  
07/21/2016 19:15 MST27.6P  1.86P  2.93P  0.00P  
07/21/2016 19:30 MST27.5P  1.86P  2.93P  0.00P  
07/21/2016 19:45 MST27.4P  1.86P  2.93P  0.00P  
07/21/2016 20:00 MST27.2P  1.86P  2.93P  0.00P  
07/21/2016 20:15 MST27.1P  1.86P  2.93P  0.00P  
07/21/2016 20:30 MST27.0P  1.86P  2.93P  0.00P  
07/21/2016 20:45 MST26.9P  1.86P  2.93P  0.00P  
07/21/2016 21:00 MST26.8P  1.86P  2.93P  0.00P  
07/21/2016 21:15 MST26.6P  1.87P  3.12P  0.00P  
07/21/2016 21:30 MST26.5P  1.86P  2.93P  0.00P  
07/21/2016 21:45 MST26.3P  1.86P  2.93P  0.00P  
07/21/2016 22:00 MST26.2P  1.86P  2.93P  0.00P  
07/21/2016 22:15 MST26.1P  1.86P  2.93P  0.00P  
07/21/2016 22:30 MST26.0P  1.86P  2.93P  0.00P  
07/21/2016 22:45 MST25.9P  1.86P  2.93P  0.00P  
07/21/2016 23:00 MST25.8P  1.86P  2.93P  0.00P  
07/21/2016 23:15 MST25.6P  1.87P  3.12P  0.00P  
07/21/2016 23:30 MST25.6P  1.87P  3.12P  0.00P  
07/21/2016 23:45 MST25.4P  1.86P  2.93P  0.00P  
07/22/2016 00:00 MST25.4P  1.86P  2.93P  0.00P  
07/22/2016 00:15 MST25.3P  1.87P  3.12P  0.00P  
07/22/2016 00:30 MST25.2P  1.85P  2.75P  0.00P  
07/22/2016 00:45 MST25.1P  1.83P  2.42P  0.04P  
07/22/2016 01:00 MST25.0P  1.88P  3.31P  0.16P  
07/22/2016 01:15 MST24.9P  1.89P  3.52P  0.07P  
07/22/2016 01:30 MST24.8P  1.90P  3.73P  0.05P  
07/22/2016 01:45 MST24.7P  1.91P  3.95P  0.02P  
07/22/2016 02:00 MST24.6P  1.91P  3.95P  0.01P  
07/22/2016 02:15 MST24.5P  1.91P  3.95P  0.01P  
07/22/2016 02:30 MST24.4P  1.91P  3.95P  0.01P  
07/22/2016 02:45 MST24.3P  1.91P  3.95P  0.00P  
07/22/2016 03:00 MST24.2P  1.91P  3.95P  0.01P  
07/22/2016 03:15 MST24.2P  1.90P  3.73P  0.00P  
07/22/2016 03:30 MST24.1P  1.87P  3.12P  0.00P  
07/22/2016 03:45 MST24.0P  1.90P  3.73P  0.00P  
07/22/2016 04:00 MST23.9P  1.90P  3.73P  0.00P  
07/22/2016 04:15 MST23.8P  1.90P  3.73P  0.00P  
07/22/2016 04:30 MST23.8P  1.90P  3.73P  0.00P  
07/22/2016 04:45 MST23.7P  1.90P  3.73P  0.00P  
07/22/2016 05:00 MST23.7P  1.90P  3.73P  0.00P  
07/22/2016 05:15 MST23.6P  1.90P  3.73P  0.00P  
07/22/2016 05:30 MST23.6P  1.90P  3.73P  0.00P  
07/22/2016 05:45 MST23.5P  2.06P  8.51P  0.00P  
07/22/2016 06:00 MST23.5P  2.60P  49.2P  0.00P  
07/22/2016 06:15 MST23.4P  2.71P  61.7P  0.00P  
07/22/2016 06:30 MST23.5P  2.76P  68.0P  0.00P  
07/22/2016 06:45 MST23.4P  2.75P  66.7P  0.00P  
07/22/2016 07:00 MST23.4P  2.73P  64.2P  0.00P  
07/22/2016 07:15 MST23.2P  2.69P  59.3P  0.00P  
07/22/2016 07:30 MST23.1P  2.66P  55.8P  0.00P  
07/22/2016 07:45 MST22.9P  2.62P  51.3P  0.00P  
07/22/2016 08:00 MST22.7P  2.58P  47.1P  0.00P  
07/22/2016 08:15 MST22.6P  2.54P  43.1P  0.00P  
07/22/2016 08:30 MST22.5P  2.50P  39.3P  0.00P  
07/22/2016 08:45 MST22.4P  2.47P  36.5P  0.00P  
07/22/2016 09:00 MST22.4P  2.43P  33.0P  0.00P  
07/22/2016 09:15 MST22.4P  2.41P  31.4P  0.00P  
07/22/2016 09:30 MST22.4P  2.37P  27.9P  0.00P  
07/22/2016 09:45 MST22.4P  2.34P  25.4P  0.00P  
07/22/2016 10:00 MST22.6P  2.32P  23.8P  0.00P  
07/22/2016 10:15 MST22.6P  2.30P  22.2P  0.00P  
07/22/2016 10:30 MST22.8P  2.27P  19.9P  0.00P  
07/22/2016 10:45 MST22.9P  2.26P  19.2P  0.00P  
07/22/2016 11:00 MST23.1P  2.24P  17.9P  0.00P  
07/22/2016 11:15 MST23.2P  2.22P  16.6P  0.00P  
07/22/2016 11:30 MST23.4P  2.20P  15.4P  0.00P  
07/22/2016 11:45 MST23.6P  2.19P  14.8P  0.00P  
07/22/2016 12:00 MST23.9P  2.17P  13.6P  0.00P  
07/22/2016 12:15 MST24.1P  2.16P  13.1P  0.00P  
07/22/2016 12:30 MST24.3P  2.15P  12.6P  0.00P  
07/22/2016 12:45 MST24.6P  2.14P  12.1P  0.00P  
07/22/2016 13:00 MST24.8P  2.13P  11.6P  0.00P  
07/22/2016 13:15 MST25.0P  2.11P  10.6P  0.00P  
07/22/2016 13:30 MST25.2P  2.10P  10.2P  0.00P  
07/22/2016 13:45 MST25.4P  2.10P  10.2P  0.00P  
07/22/2016 14:00 MST25.6P  2.09P  9.74P  0.00P  
07/22/2016 14:15 MST25.8P  2.08P  9.32P  0.00P  
07/22/2016 14:30 MST26.0P  2.07P  8.91P  0.00P  
07/22/2016 14:45 MST26.2P  2.06P  8.51P  0.00P  
07/22/2016 15:00 MST26.4P  2.05P  8.12P  0.00P  
07/22/2016 15:15 MST26.5P  2.04P  7.75P  0.00P  
07/22/2016 15:30 MST26.7P  2.04P  7.75P  0.00P  
07/22/2016 15:45 MST26.8P  2.03P  7.39P  0.00P  
07/22/2016 16:00 MST26.9P  2.02P  7.04P  0.00P  
07/22/2016 16:15 MST27.0P  2.02P  7.04P  0.00P  
07/22/2016 16:30 MST27.0P  2.01P  6.71P  0.00P  
07/22/2016 16:45 MST27.1P  2.01P  6.71P  0.00P  
07/22/2016 17:00 MST27.1P  2.00P  6.39P  0.00P  
07/22/2016 17:15 MST27.1P  1.99P  6.07P  0.00P  
07/22/2016 17:30 MST27.1P  1.99P  6.07P  0.00P  
07/22/2016 17:45 MST27.0P  1.98P  5.77P  0.00P  
07/22/2016 18:00 MST27.0P  1.98P  5.77P  0.00P  
07/22/2016 18:15 MST26.9P  1.98P  5.77P  0.00P  
07/22/2016 18:30 MST26.8P  1.97P  5.48P  0.00P  
07/22/2016 18:45 MST26.7P  1.97P  5.48P  0.00P  
07/22/2016 19:00 MST26.6P  1.97P  5.48P  0.00P  
07/22/2016 19:15 MST26.6P  1.97P  5.48P  0.00P  
07/22/2016 19:30 MST26.4P  1.96P  5.20P  0.00P  
07/22/2016 19:45 MST26.4P  1.96P  5.20P  0.00P  
07/22/2016 20:00 MST26.2P  1.95P  4.93P  0.00P  
07/22/2016 20:15 MST26.1P  1.95P  4.93P  0.00P  
07/22/2016 20:30 MST26.0P  1.95P  4.93P  0.00P  
07/22/2016 20:45 MST25.9P  1.95P  4.93P  0.00P  
07/22/2016 21:00 MST25.8P  1.94P  4.67P  0.00P  
07/22/2016 21:15 MST25.7P  1.94P  4.67P  0.00P  
07/22/2016 21:30 MST25.6P  1.94P  4.67P  0.00P  
07/22/2016 21:45 MST25.6P  1.94P  4.67P  0.00P  
07/22/2016 22:00 MST25.5P  1.94P  4.67P  0.00P  
07/22/2016 22:15 MST25.4P  1.93P  4.42P  0.00P  
07/22/2016 22:30 MST25.3P  1.93P  4.42P  0.00P  
07/22/2016 22:45 MST25.2P  1.93P  4.42P  0.00P  
07/22/2016 23:00 MST25.2P  1.93P  4.42P  0.00P  
07/22/2016 23:15 MST25.1P  1.93P  4.42P  0.00P  
07/22/2016 23:30 MST25.1P  1.93P  4.42P  0.00P  
07/22/2016 23:45 MST25.0P  1.92P  4.18P  0.00P  
07/23/2016 00:00 MST24.9P  1.92P  4.18P  0.00P  
07/23/2016 00:15 MST24.9P  1.92P  4.18P  0.00P  
07/23/2016 00:30 MST24.8P  1.92P  4.18P  0.00P  
07/23/2016 00:45 MST24.8P  1.92P  4.18P  0.00P  
07/23/2016 01:00 MST24.7P  1.92P  4.18P  0.00P  
07/23/2016 01:15 MST24.6P  1.91P  3.95P  0.00P  
07/23/2016 01:30 MST24.6P  1.91P  3.95P  0.00P  
07/23/2016 01:45 MST24.5P  1.91P  3.95P  0.00P  
07/23/2016 02:00 MST24.5P  1.91P  3.95P  0.00P  
07/23/2016 02:15 MST24.4P  1.91P  3.95P  0.00P  
07/23/2016 02:30 MST24.3P  1.91P  3.95P  0.00P  
07/23/2016 02:45 MST24.3P  1.91P  3.95P  0.00P  
07/23/2016 03:00 MST24.2P  1.91P  3.95P  0.00P  
07/23/2016 03:15 MST24.1P  1.91P  3.95P  0.00P  
07/23/2016 03:30 MST24.0P  1.91P  3.95P  0.00P  
07/23/2016 03:45 MST24.0P  1.91P  3.95P  0.00P  
07/23/2016 04:00 MST23.9P  1.91P  3.95P  0.00P  
07/23/2016 04:15 MST23.9P  1.91P  3.95P  0.00P  
07/23/2016 04:30 MST23.8P  1.91P  3.95P  0.00P  
07/23/2016 04:45 MST23.7P  1.91P  3.95P  0.00P  
07/23/2016 05:00 MST23.6P  1.90P  3.73P  0.00P  
07/23/2016 05:15 MST23.6P  1.90P  3.73P  0.00P  
07/23/2016 05:30 MST23.5P  1.91P  3.95P  0.00P  
07/23/2016 05:45 MST23.4P  1.91P  3.95P  0.00P  
07/23/2016 06:00 MST23.4P  1.91P  3.95P  0.00P  
07/23/2016 06:15 MST23.4P  1.91P  3.95P  0.00P  
07/23/2016 06:30 MST23.3P  1.90P  3.73P  0.00P  
07/23/2016 06:45 MST23.3P  1.91P  3.95P  0.00P  
07/23/2016 07:00 MST23.3P  1.90P  3.73P  0.00P  
07/23/2016 07:15 MST23.2P  1.90P  3.73P  0.00P  
07/23/2016 07:30 MST23.2P  1.90P  3.73P  0.00P  
07/23/2016 07:45 MST23.2P  1.90P  3.73P  0.00P  
07/23/2016 08:00 MST23.2P  1.90P  3.73P  0.00P  
07/23/2016 08:15 MST23.1P  1.90P  3.73P  0.00P  
07/23/2016 08:30 MST23.2P  1.90P  3.73P  0.00P  
07/23/2016 08:45 MST23.2P  1.90P  3.73P  0.00P  
07/23/2016 09:00 MST23.3P  1.90P  3.73P  0.00P  
07/23/2016 09:15 MST23.4P  1.90P  3.73P  0.00P  
07/23/2016 09:30 MST23.5P  1.89P  3.52P  0.00P  
07/23/2016 09:45 MST23.6P  1.89P  3.52P  0.00P  
07/23/2016 10:00 MST23.8P  1.89P  3.52P  0.00P  
07/23/2016 10:15 MST24.0P  1.89P  3.52P  0.00P  
07/23/2016 10:30 MST24.3P  1.89P  3.52P  0.00P  
07/23/2016 10:45 MST24.5P  1.89P  3.52P  0.00P  
07/23/2016 11:00 MST24.8P  1.89P  3.52P  0.00P  
07/23/2016 11:15 MST25.0P  1.89P  3.52P  0.00P  
07/23/2016 11:30 MST25.3P  1.88P  3.31P  0.00P  
07/23/2016 11:45 MST25.6P  1.88P  3.31P  0.00P  
07/23/2016 12:00 MST25.9P  1.88P  3.31P  0.00P  
07/23/2016 12:15 MST26.2P  1.88P  3.31P  0.00P  
07/23/2016 12:30 MST26.5P  1.88P  3.31P  0.00P  
07/23/2016 12:45 MST27.0P  1.88P  3.31P  0.00P  
07/23/2016 13:00 MST27.6P  1.88P  3.31P  0.00P  
07/23/2016 13:15 MST27.8P  1.87P  3.12P  0.00P  
07/23/2016 13:30 MST28.1P  1.87P  3.12P  0.00P  
07/23/2016 13:45 MST28.3P  1.87P  3.12P  0.00P  
07/23/2016 14:00 MST28.8P  1.87P  3.12P  0.00P  
07/23/2016 14:15 MST28.9P  1.87P  3.12P  0.00P  
07/23/2016 14:30 MST29.4P  1.86P  2.93P  0.00P  
07/23/2016 14:45 MST29.7P  1.86P  2.93P  0.00P  
07/23/2016 15:00 MST29.8P  1.86P  2.93P  0.00P  
07/23/2016 15:15 MST30.1P  1.86P  2.93P  0.00P  
07/23/2016 15:30 MST30.1P  1.86P  2.93P  0.00P  
07/23/2016 15:45 MST30.2P  1.86P  2.93P  0.00P  
07/23/2016 16:00 MST30.3P  1.85P  2.75P  0.00P  
07/23/2016 16:15 MST30.2P  1.86P  2.93P  0.00P  
07/23/2016 16:30 MST30.3P  1.85P  2.75P  0.00P  
07/23/2016 16:45 MST30.1P  1.85P  2.75P  0.00P  
07/23/2016 17:00 MST30.0P  1.85P  2.75P  0.00P  
07/23/2016 17:15 MST29.9P  1.85P  2.75P  0.00P  
07/23/2016 17:30 MST29.8P  1.85P  2.75P  0.00P  
07/23/2016 17:45 MST29.7P  1.84P  2.58P  0.00P  
07/23/2016 18:00 MST29.4P  1.84P  2.58P  0.00P  
07/23/2016 18:15 MST29.1P  1.85P  2.75P  0.00P  
07/23/2016 18:30 MST28.9P  1.84P  2.58P  0.00P  
07/23/2016 18:45 MST28.7P  1.84P  2.58P  0.00P  
07/23/2016 19:00 MST28.4P  1.84P  2.58P  0.00P  
07/23/2016 19:15 MST28.3P  1.84P  2.58P  0.00P  
07/23/2016 19:30 MST28.1P  1.84P  2.58P  0.00P  
07/23/2016 19:45 MST27.9P  1.84P  2.58P  0.00P  
07/23/2016 20:00 MST27.8P  1.84P  2.58P  0.00P  
07/23/2016 20:15 MST27.6P  1.84P  2.58P  0.00P  
07/23/2016 20:30 MST27.5P  1.84P  2.58P  0.00P  
07/23/2016 20:45 MST27.4P  1.84P  2.58P  0.00P  
07/23/2016 21:00 MST27.2P  1.84P  2.58P  0.00P  
07/23/2016 21:14 MST   1.84P  2.58P     
07/23/2016 21:15 MST   1.84P  2.58P  0.00P  
07/23/2016 21:29 MST   1.84P  2.58P     
07/23/2016 21:30 MST   1.84P  2.58P  0.00P  
07/23/2016 21:45 MST26.8P  1.85P  2.75P  0.00P  
07/23/2016 22:00 MST26.7P  1.85P  2.75P  0.00P  
07/23/2016 22:15 MST26.6P  1.85P  2.75P  0.00P  
07/23/2016 22:30 MST26.4P  1.84P  2.58P  0.00P  
07/23/2016 22:45 MST26.4P  1.85P  2.75P  0.00P  
07/23/2016 23:00 MST26.3P  1.85P  2.75P  0.00P  
07/23/2016 23:15 MST26.1P  1.85P  2.75P  0.00P  
07/23/2016 23:30 MST26.0P  1.85P  2.75P  0.00P  
07/23/2016 23:45 MST25.9P  1.85P  2.75P  0.00P  
07/24/2016 00:00 MST25.8P  1.84P  2.58P  0.00P  
07/24/2016 00:15 MST25.7P  1.85P  2.75P  0.00P  
07/24/2016 00:30 MST25.6P  1.85P  2.75P  0.00P  
07/24/2016 00:45 MST25.6P  1.85P  2.75P  0.00P  
07/24/2016 01:00 MST25.5P  1.85P  2.75P  0.00P  
07/24/2016 01:15 MST25.5P  1.85P  2.75P  0.00P  
07/24/2016 01:30 MST25.4P  1.85P  2.75P  0.00P  
07/24/2016 01:45 MST25.3P  1.85P  2.75P  0.00P  
07/24/2016 02:00 MST25.2P  1.85P  2.75P  0.00P  
07/24/2016 02:15 MST25.2P  1.85P  2.75P  0.00P  
07/24/2016 02:30 MST25.1P  1.80P  1.97P  0.00P  
07/24/2016 02:45 MST25.0P  1.81P  2.11P  0.00P  
07/24/2016 03:00 MST25.0P  1.79P  1.84P  0.00P  
07/24/2016 03:15 MST24.9P  1.81P  2.11P  0.00P  
07/24/2016 03:30 MST24.8P  1.85P  2.75P  0.00P  
07/24/2016 03:45 MST24.8P  1.85P  2.75P  0.00P  
07/24/2016 04:00 MST24.7P  1.85P  2.75P  0.00P  
07/24/2016 04:15 MST24.6P  1.85P  2.75P  0.00P  
07/24/2016 04:30 MST24.5P  1.85P  2.75P  0.00P  
07/24/2016 04:45 MST24.5P  1.86P  2.93P  0.00P  
07/24/2016 05:00 MST24.4P  1.86P  2.93P  0.00P  
07/24/2016 05:15 MST24.4P  1.86P  2.93P  0.00P  
07/24/2016 05:30 MST24.4P  1.86P  2.93P  0.00P  
07/24/2016 05:45 MST24.3P  1.86P  2.93P  0.00P  
07/24/2016 06:00 MST24.3P  1.86P  2.93P  0.00P  
07/24/2016 06:15 MST24.2P  1.86P  2.93P  0.00P  
07/24/2016 06:30 MST24.2P  1.86P  2.93P  0.00P  
07/24/2016 06:45 MST24.2P  1.86P  2.93P  0.00P  
07/24/2016 07:00 MST24.2P  1.86P  2.93P  0.00P  
07/24/2016 07:15 MST24.2P  1.86P  2.93P  0.00P  
07/24/2016 07:30 MST24.2P  1.86P  2.93P  0.00P  
07/24/2016 07:45 MST24.1P  1.86P  2.93P  0.00P  
07/24/2016 08:00 MST24.1P  1.86P  2.93P  0.00P  
07/24/2016 08:15 MST24.1P  1.86P  2.93P  0.00P  
07/24/2016 08:30 MST24.1P  1.86P  2.93P  0.00P  
07/24/2016 08:45 MST24.2P  1.86P  2.93P  0.00P  
07/24/2016 09:00 MST24.2P  1.86P  2.93P  0.00P  
07/24/2016 09:15 MST24.3P  1.85P  2.75P  0.00P  
07/24/2016 09:30 MST24.4P  1.85P  2.75P  0.00P  
07/24/2016 09:45 MST24.6P  1.85P  2.75P  0.00P  
07/24/2016 10:00 MST24.7P  1.85P  2.75P  0.00P  
07/24/2016 10:15 MST25.0P  1.85P  2.75P  0.00P  
07/24/2016 10:30 MST25.2P  1.85P  2.75P  0.00P  
07/24/2016 10:45 MST25.4P  1.85P  2.75P  0.00P  
07/24/2016 11:00 MST25.7P  1.85P  2.75P  0.00P  
07/24/2016 11:15 MST25.9P  1.85P  2.75P  0.00P  
07/24/2016 11:30 MST26.2P  1.85P  2.75P  0.00P  
07/24/2016 11:45 MST26.4P  1.85P  2.75P  0.00P  
07/24/2016 12:00 MST26.7P  1.84P  2.58P  0.00P  
07/24/2016 12:15 MST27.0P  1.84P  2.58P  0.00P  
07/24/2016 12:30 MST27.5P  1.82P  2.26P  0.00P  
07/24/2016 12:45 MST27.9P  1.84P  2.58P  0.00P  
07/24/2016 13:00 MST28.1P  1.80P  1.97P  0.00P  
07/24/2016 13:15 MST28.5P  1.84P  2.58P  0.00P  
07/24/2016 13:30 MST28.8P  1.84P  2.58P  0.00P  
07/24/2016 13:45 MST29.0P  1.84P  2.58P  0.00P  
07/24/2016 14:00 MST29.3P  1.82P  2.26P  0.00P  
07/24/2016 14:15 MST29.6P  1.83P  2.42P  0.00P  
07/24/2016 14:30 MST29.7P  1.83P  2.42P  0.00P  
07/24/2016 14:45 MST29.8P  1.83P  2.42P  0.00P  
07/24/2016 15:00 MST30.1P  1.83P  2.42P  0.00P  
07/24/2016 15:15 MST30.3P  1.83P  2.42P  0.00P  
07/24/2016 15:30 MST30.4P  1.83P  2.42P  0.00P  
07/24/2016 15:45 MST30.5P  1.83P  2.42P  0.00P  
07/24/2016 16:00 MST30.5P  1.82P  2.26P  0.00P  
07/24/2016 16:15 MST30.4P  1.82P  2.26P  0.00P  
07/24/2016 16:30 MST30.4P  1.82P  2.26P  0.00P  
07/24/2016 16:45 MST30.3P  1.82P  2.26P  0.00P  
07/24/2016 17:00 MST30.1P  1.82P  2.26P  0.00P  
07/24/2016 17:15 MST30.0P  1.81P  2.11P  0.00P  
07/24/2016 17:30 MST29.9P  1.82P  2.26P  0.00P  
07/24/2016 17:45 MST29.7P  1.82P  2.26P  0.00P  
07/24/2016 18:00 MST29.5P  1.82P  2.26P  0.00P  
07/24/2016 18:15 MST29.2P  1.82P  2.26P  0.00P  
07/24/2016 18:30 MST29.0P  1.82P  2.26P  0.00P  
07/24/2016 18:45 MST28.7P  1.82P  2.26P  0.00P  
07/24/2016 19:00 MST28.4P  1.82P  2.26P  0.00P  
07/24/2016 19:15 MST28.2P  1.82P  2.26P  0.00P  
07/24/2016 19:30 MST28.0P  1.82P  2.26P  0.00P  
07/24/2016 19:45 MST27.8P  1.82P  2.26P  0.00P  
07/24/2016 20:00 MST27.7P  1.82P  2.26P  0.00P  
07/24/2016 20:15 MST27.6P  1.82P  2.26P  0.00P  
07/24/2016 20:30 MST27.4P  1.82P  2.26P  0.00P  
07/24/2016 20:45 MST27.3P  1.82P  2.26P  0.00P  
07/24/2016 21:00 MST27.2P  1.82P  2.26P  0.00P  
07/24/2016 21:15 MST27.0P  1.76P  1.47P  0.00P  
07/24/2016 21:30 MST26.8P  1.77P  1.59P  0.00P  
07/24/2016 21:45 MST26.6P  1.76P  1.47P  0.00P  
07/24/2016 22:00 MST26.4P  1.78P  1.71P  0.00P  
07/24/2016 22:15 MST26.2P  1.77P  1.59P  0.00P  
07/24/2016 22:30 MST26.0P  1.82P  2.26P  0.00P  
07/24/2016 22:45 MST25.8P  1.80P  1.97P  0.00P  
07/24/2016 23:00 MST25.7P  1.82P  2.26P  0.01P  
07/24/2016 23:15 MST25.6P  1.82P  2.26P  0.02P  
07/24/2016 23:30 MST25.4P  1.82P  2.26P  0.02P  
07/24/2016 23:45 MST25.3P  1.82P  2.26P  0.01P  
07/25/2016 00:00 MST25.2P  1.82P  2.26P  0.01P  
07/25/2016 00:15 MST25.0P  1.82P  2.26P  0.00P  
07/25/2016 00:30 MST24.9P  1.82P  2.26P  0.00P  
07/25/2016 00:45 MST24.8P  1.83P  2.42P  0.00P  
07/25/2016 01:00 MST24.6P  1.83P  2.42P  0.00P  
07/25/2016 01:15 MST24.5P  1.83P  2.42P  0.00P  
07/25/2016 01:30 MST24.5P  1.83P  2.42P  0.00P  
07/25/2016 01:45 MST24.4P  1.83P  2.42P  0.00P  
07/25/2016 02:00 MST24.3P  1.83P  2.42P  0.00P  
07/25/2016 02:15 MST24.1P  1.83P  2.42P  0.00P  
07/25/2016 02:30 MST24.1P  1.82P  2.26P  0.00P  
07/25/2016 02:45 MST24.1P  1.82P  2.26P  0.00P  
07/25/2016 03:00 MST24.0P  1.82P  2.26P  0.00P  
07/25/2016 03:15 MST23.9P  1.82P  2.26P  0.00P  
07/25/2016 03:30 MST23.9P  1.82P  2.26P  0.00P  
07/25/2016 03:45 MST23.8P  1.82P  2.26P  0.00P  
07/25/2016 04:00 MST23.8P  1.82P  2.26P  0.00P  
07/25/2016 04:15 MST23.8P  1.82P  2.26P  0.00P  
07/25/2016 04:30 MST23.7P  1.83P  2.42P  0.00P  
07/25/2016 04:45 MST23.6P  1.83P  2.42P  0.00P  
07/25/2016 05:00 MST23.6P  1.83P  2.42P  0.00P  
07/25/2016 05:15 MST23.6P  1.83P  2.42P  0.00P  
07/25/2016 05:30 MST23.5P  1.83P  2.42P  0.00P  
07/25/2016 05:45 MST23.5P  1.84P  2.58P  0.00P  
07/25/2016 06:00 MST23.5P  1.84P  2.58P  0.00P  
07/25/2016 06:15 MST23.5P  1.84P  2.58P  0.00P  
07/25/2016 06:30 MST23.5P  1.84P  2.58P  0.00P  
07/25/2016 06:45 MST23.5P  1.84P  2.58P  0.00P  
07/25/2016 07:00 MST23.5P  1.85P  2.75P  0.00P  
07/25/2016 07:15 MST23.5P  1.86P  2.93P  0.00P  
07/25/2016 07:30 MST23.5P  1.87P  3.12P  0.00P  
07/25/2016 07:45 MST23.6P  1.90P  3.73P  0.00P  
07/25/2016 08:00 MST23.6P  1.92P  4.18P  0.00P  
07/25/2016 08:15 MST23.7P  1.93P  4.42P  0.00P  
07/25/2016 08:30 MST23.7P  1.94P  4.67P  0.00P  
07/25/2016 08:45 MST23.8P  1.95P  4.93P  0.00P  
07/25/2016 09:00 MST23.8P  1.95P  4.93P  0.00P  
07/25/2016 09:15 MST23.9P  1.95P  4.93P  0.00P  
07/25/2016 09:30 MST24.0P  1.95P  4.93P  0.00P  
07/25/2016 09:45 MST24.2P  1.95P  4.93P  0.00P  
07/25/2016 10:00 MST24.4P  1.95P  4.93P  0.00P  
07/25/2016 10:15 MST24.5P  1.94P  4.67P  0.00P  
07/25/2016 10:30 MST24.6P  1.93P  4.42P  0.00P  
07/25/2016 10:45 MST24.8P  1.93P  4.42P  0.00P  
07/25/2016 11:00 MST25.0P  1.93P  4.42P  0.00P  
07/25/2016 11:15 MST25.2P  1.93P  4.42P  0.00P  
07/25/2016 11:30 MST25.5P  1.92P  4.18P  0.00P  
07/25/2016 11:45 MST25.7P  1.92P  4.18P  0.00P  
07/25/2016 12:00 MST26.1P  1.90P  3.73P  0.00P  
07/25/2016 12:15 MST26.4P  1.91P  3.95P  0.00P  
07/25/2016 12:30 MST26.7P  1.91P  3.95P  0.00P  
07/25/2016 12:45 MST26.9P  1.90P  3.73P  0.00P  
07/25/2016 13:00 MST27.1P  1.90P  3.73P  0.00P  
07/25/2016 13:15 MST27.3P  1.89P  3.52P  0.00P  
07/25/2016 13:30 MST27.5P  1.89P  3.52P  0.00P  
07/25/2016 13:45 MST27.7P  1.88P  3.31P  0.00P  
07/25/2016 14:00 MST28.0P  1.88P  3.31P  0.00P  
07/25/2016 14:15 MST28.2P  1.88P  3.31P  0.00P  
07/25/2016 14:30 MST28.6P  1.88P  3.31P  0.00P  
07/25/2016 14:45 MST29.0P  1.87P  3.12P  0.00P  
07/25/2016 15:00 MST29.3P  1.87P  3.12P  0.00P  
07/25/2016 15:15 MST29.5P  1.86P  2.93P  0.00P  
07/25/2016 15:30 MST29.7P  1.86P  2.93P  0.00P  
07/25/2016 15:45 MST29.8P  1.85P  2.75P  0.00P  
07/25/2016 16:00 MST29.9P  1.85P  2.75P  0.00P  
07/25/2016 16:15 MST30.0P  1.85P  2.75P  0.00P  
07/25/2016 16:30 MST30.0P  1.85P  2.75P  0.00P  
07/25/2016 16:45 MST30.1P  1.85P  2.75P  0.00P  
07/25/2016 17:00 MST30.0P  1.84P  2.58P  0.00P  
07/25/2016 17:15 MST30.0P  1.84P  2.58P  0.00P  
07/25/2016 17:30 MST29.9P  1.84P  2.58P  0.00P  
07/25/2016 17:45 MST29.7P  1.84P  2.58P  0.00P  
07/25/2016 18:00 MST29.6P  1.84P  2.58P  0.00P  
07/25/2016 18:15 MST29.4P  1.83P  2.42P  0.00P  
07/25/2016 18:30 MST29.1P  1.83P  2.42P  0.00P  
07/25/2016 18:45 MST28.8P  1.83P  2.42P  0.00P  
07/25/2016 19:00 MST28.6P  1.83P  2.42P  0.00P  
07/25/2016 19:15 MST28.4P  1.83P  2.42P  0.00P  
07/25/2016 19:30 MST28.2P  1.83P  2.42P  0.00P  
07/25/2016 19:45 MST28.0P  1.83P  2.42P  0.00P  
07/25/2016 20:00 MST27.8P  1.83P  2.42P  0.00P  
07/25/2016 20:15 MST27.7P  1.82P  2.26P  0.00P  
07/25/2016 20:30 MST27.5P  1.83P  2.42P  0.00P  
07/25/2016 20:45 MST27.3P  1.83P  2.42P  0.00P  
07/25/2016 21:00 MST27.2P  1.83P  2.42P  0.00P  
07/25/2016 21:15 MST27.0P  1.83P  2.42P  0.00P  
07/25/2016 21:30 MST26.8P  1.83P  2.42P  0.00P  
07/25/2016 21:45 MST26.7P  1.83P  2.42P  0.00P  
07/25/2016 22:00 MST26.6P  1.83P  2.42P  0.00P  
07/25/2016 22:15 MST26.4P  1.83P  2.42P  0.00P  
07/25/2016 22:30 MST26.3P  1.83P  2.42P  0.00P  
07/25/2016 22:45 MST26.1P  1.83P  2.42P  0.00P  
07/25/2016 23:00 MST26.0P  1.83P  2.42P  0.00P  
07/25/2016 23:15 MST25.9P  1.83P  2.42P  0.00P  
07/25/2016 23:30 MST25.8P  1.83P  2.42P  0.00P  
07/25/2016 23:45 MST25.7P  1.83P  2.42P  0.00P  
07/26/2016 00:00 MST25.6P  1.83P  2.42P  0.00P  
07/26/2016 00:15 MST25.5P  1.83P  2.42P  0.00P  
07/26/2016 00:30 MST25.4P  1.83P  2.42P  0.00P  
07/26/2016 00:45 MST25.3P  1.83P  2.42P  0.00P  
07/26/2016 01:00 MST25.3P  1.83P  2.42P  0.00P  
07/26/2016 01:15 MST25.2P  1.83P  2.42P  0.00P  
07/26/2016 01:30 MST25.1P  1.83P  2.42P  0.00P  
07/26/2016 01:45 MST25.1P  1.83P  2.42P  0.00P  
07/26/2016 02:00 MST25.1P  1.83P  2.42P  0.00P  
07/26/2016 02:15 MST25.0P  1.83P  2.42P  0.00P  
07/26/2016 02:30 MST25.0P  1.84P  2.58P  0.00P  
07/26/2016 02:45 MST24.9P  1.83P  2.42P  0.00P  
07/26/2016 03:00 MST24.9P  1.84P  2.58P  0.00P  
07/26/2016 03:15 MST24.9P  1.83P  2.42P  0.00P  
07/26/2016 03:30 MST24.8P  1.83P  2.42P  0.00P  
07/26/2016 03:45 MST24.7P  1.83P  2.42P  0.00P  
07/26/2016 04:00 MST24.7P  1.84P  2.58P  0.00P  
07/26/2016 04:15 MST24.7P  1.84P  2.58P  0.00P  
07/26/2016 04:30 MST24.6P  1.84P  2.58P  0.00P  
07/26/2016 04:45 MST24.5P  1.84P  2.58P  0.00P  
07/26/2016 05:00 MST24.5P  1.84P  2.58P  0.00P  
07/26/2016 05:15 MST24.4P  1.84P  2.58P  0.00P  
07/26/2016 05:30 MST24.4P  1.84P  2.58P  0.00P  
07/26/2016 05:45 MST24.3P  1.84P  2.58P  0.00P  
07/26/2016 06:00 MST24.3P  1.84P  2.58P  0.00P  
07/26/2016 06:15 MST24.3P  1.84P  2.58P  0.00P  
07/26/2016 06:30 MST24.2P  1.84P  2.58P  0.00P  
07/26/2016 06:45 MST24.2P  1.82P  2.26P  0.00P  
07/26/2016 07:00 MST24.1P  1.84P  2.58P  0.00P  
07/26/2016 07:15 MST24.1P  1.84P  2.58P  0.00P  
07/26/2016 07:30 MST24.1P  1.79P  1.84P  0.00P  
07/26/2016 07:45 MST24.1P  1.85P  2.75P  0.00P  
07/26/2016 08:00 MST24.1P  1.85P  2.75P  0.00P  

Explanation
  P  Provisional data subject to revision.